sensor_id;sensor_type;location;lat;lon;timestamp;pressure;altitude;pressure_sealevel;temperature;humidity
54936;BME280;40838;50.676;7.838;2023-02-01T00:01:35;98667.66;;;3.05;100.00
54936;BME280;40838;50.676;7.838;2023-02-01T00:07:11;98670.81;;;2.96;100.00
54936;BME280;40838;50.676;7.838;2023-02-01T00:10:11;98672.06;;;2.68;100.00
54936;BME280;40838;50.676;7.838;2023-02-01T00:14:54;98669.47;;;2.36;100.00
54936;BME280;40838;50.676;7.838;2023-02-01T00:15:52;98668.44;;;2.69;100.00
54936;BME280;40838;50.676;7.838;2023-02-01T00:19:58;98673.53;;;2.39;100.00
54936;BME280;40838;50.676;7.838;2023-02-01T00:28:02;98669.09;;;2.33;100.00
54936;BME280;40838;50.676;7.838;2023-02-01T00:30:41;98647.38;;;2.69;100.00
54936;BME280;40838;50.676;7.838;2023-02-01T00:36:33;98658.03;;;2.56;100.00
54936;BME280;40838;50.676;7.838;2023-02-01T00:41:57;98659.94;;;2.67;100.00
54936;BME280;40838;50.676;7.838;2023-02-01T00:44:38;98656.25;;;2.75;100.00
54936;BME280;40838;50.676;7.838;2023-02-01T00:47:06;98662.13;;;2.52;100.00
54936;BME280;40838;50.676;7.838;2023-02-01T00:49:54;98660.97;;;2.66;100.00
54936;BME280;40838;50.676;7.838;2023-02-01T00:56:19;98662.75;;;2.72;100.00
54936;BME280;40838;50.676;7.838;2023-02-01T00:59:02;98665.50;;;2.27;100.00
54936;BME280;40838;50.676;7.838;2023-02-01T01:01:41;98655.69;;;2.16;100.00
54936;BME280;40838;50.676;7.838;2023-02-01T01:11:03;98660.38;;;2.64;100.00
54936;BME280;40838;50.676;7.838;2023-02-01T01:26:25;98666.97;;;2.23;100.00
54936;BME280;40838;50.676;7.838;2023-02-01T01:34:54;98630.38;;;2.22;100.00
54936;BME280;40838;50.676;7.838;2023-02-01T01:43:58;98614.81;;;2.45;100.00
54936;BME280;40838;50.676;7.838;2023-02-01T01:46:30;98614.81;;;2.20;100.00
54936;BME280;40838;50.676;7.838;2023-02-01T01:52:14;98617.72;;;2.37;100.00
54936;BME280;40838;50.676;7.838;2023-02-01T01:55:00;98616.69;;;2.38;100.00
54936;BME280;40838;50.676;7.838;2023-02-01T01:57:42;98629.72;;;2.26;100.00
54936;BME280;40838;50.676;7.838;2023-02-01T02:00:35;98646.56;;;2.18;100.00
54936;BME280;40838;50.676;7.838;2023-02-01T02:06:33;98649.25;;;2.44;100.00
54936;BME280;40838;50.676;7.838;2023-02-01T02:09:43;98647.88;;;2.34;100.00
54936;BME280;40838;50.676;7.838;2023-02-01T02:15:10;98641.28;;;2.50;100.00
54936;BME280;40838;50.676;7.838;2023-02-01T02:18:01;98647.34;;;2.26;100.00
54936;BME280;40838;50.676;7.838;2023-02-01T02:24:34;98650.31;;;2.04;100.00
54936;BME280;40838;50.676;7.838;2023-02-01T02:27:27;98639.66;;;2.24;100.00
54936;BME280;40838;50.676;7.838;2023-02-01T02:34:20;98618.94;;;1.84;100.00
54936;BME280;40838;50.676;7.838;2023-02-01T02:40:16;98627.84;;;2.08;100.00
54936;BME280;40838;50.676;7.838;2023-02-01T02:47:34;98605.22;;;2.32;100.00
54936;BME280;40838;50.676;7.838;2023-02-01T02:59:59;98601.63;;;2.02;100.00
54936;BME280;40838;50.676;7.838;2023-02-01T03:05:49;98594.97;;;2.24;100.00
54936;BME280;40838;50.676;7.838;2023-02-01T03:08:34;98604.84;;;2.04;100.00
54936;BME280;40838;50.676;7.838;2023-02-01T03:11:34;98602.16;;;1.85;100.00
54936;BME280;40838;50.676;7.838;2023-02-01T03:14:30;98596.31;;;1.83;100.00
54936;BME280;40838;50.676;7.838;2023-02-01T03:20:22;98590.91;;;2.03;100.00
54936;BME280;40838;50.676;7.838;2023-02-01T03:26:15;98575.50;;;2.07;100.00
54936;BME280;40838;50.676;7.838;2023-02-01T03:32:00;98572.53;;;1.71;100.00
54936;BME280;40838;50.676;7.838;2023-02-01T03:35:01;98572.50;;;1.78;100.00
54936;BME280;40838;50.676;7.838;2023-02-01T03:37:54;98577.16;;;2.01;100.00
54936;BME280;40838;50.676;7.838;2023-02-01T03:43:59;98583.00;;;2.03;100.00
54936;BME280;40838;50.676;7.838;2023-02-01T03:47:11;98580.28;;;2.16;100.00
54936;BME280;40838;50.676;7.838;2023-02-01T03:56:23;98583.00;;;2.28;100.00
54936;BME280;40838;50.676;7.838;2023-02-01T03:59:07;98580.91;;;2.37;100.00
54936;BME280;40838;50.676;7.838;2023-02-01T04:01:57;98583.34;;;2.57;100.00
54936;BME280;40838;50.676;7.838;2023-02-01T04:04:57;98582.69;;;2.43;100.00
54936;BME280;40838;50.676;7.838;2023-02-01T04:11:02;98583.00;;;2.28;100.00
54936;BME280;40838;50.676;7.838;2023-02-01T04:14:02;98574.72;;;2.25;100.00
54936;BME280;40838;50.676;7.838;2023-02-01T04:16:58;98572.53;;;2.22;100.00
54936;BME280;40838;50.676;7.838;2023-02-01T04:22:34;98575.75;;;2.24;100.00
54936;BME280;40838;50.676;7.838;2023-02-01T04:25:24;98565.22;;;1.80;100.00
54936;BME280;40838;50.676;7.838;2023-02-01T04:31:06;98575.13;;;2.03;100.00
54936;BME280;40838;50.676;7.838;2023-02-01T04:33:47;98566.03;;;2.24;100.00
54936;BME280;40838;50.676;7.838;2023-02-01T04:39:27;98581.16;;;2.10;100.00
54936;BME280;40838;50.676;7.838;2023-02-01T04:41:56;98566.31;;;2.16;100.00
54936;BME280;40838;50.676;7.838;2023-02-01T04:44:44;98577.78;;;1.71;100.00
54936;BME280;40838;50.676;7.838;2023-02-01T04:51:07;98571.16;;;1.94;100.00
54936;BME280;40838;50.676;7.838;2023-02-01T04:53:55;98569.13;;;1.71;100.00
54936;BME280;40838;50.676;7.838;2023-02-01T04:56:22;98566.78;;;1.56;100.00
54936;BME280;40838;50.676;7.838;2023-02-01T04:58:55;98565.81;;;2.07;100.00
54936;BME280;40838;50.676;7.838;2023-02-01T05:02:04;98567.50;;;1.95;100.00
54936;BME280;40838;50.676;7.838;2023-02-01T05:05:07;98569.44;;;2.06;100.00
54936;BME280;40838;50.676;7.838;2023-02-01T05:08:00;98558.66;;;2.14;100.00
54936;BME280;40838;50.676;7.838;2023-02-01T05:10:42;98559.75;;;1.82;100.00
54936;BME280;40838;50.676;7.838;2023-02-01T05:13:35;98556.75;;;1.78;100.00
54936;BME280;40838;50.676;7.838;2023-02-01T05:16:21;98542.25;;;2.19;100.00
54936;BME280;40838;50.676;7.838;2023-02-01T05:22:15;98551.31;;;1.98;100.00
54936;BME280;40838;50.676;7.838;2023-02-01T05:25:09;98549.31;;;1.68;100.00
54936;BME280;40838;50.676;7.838;2023-02-01T05:30:55;98550.16;;;1.94;100.00
54936;BME280;40838;50.676;7.838;2023-02-01T05:33:37;98553.72;;;1.49;100.00
54936;BME280;40838;50.676;7.838;2023-02-01T05:36:35;98555.50;;;1.56;100.00
54936;BME280;40838;50.676;7.838;2023-02-01T05:39:05;98557.34;;;1.48;100.00
54936;BME280;40838;50.676;7.838;2023-02-01T05:41:35;98557.44;;;1.67;100.00
54936;BME280;40838;50.676;7.838;2023-02-01T05:44:06;98562.03;;;1.46;100.00
54936;BME280;40838;50.676;7.838;2023-02-01T05:46:37;98567.13;;;1.91;100.00
54936;BME280;40838;50.676;7.838;2023-02-01T05:49:09;98577.72;;;1.85;100.00
54936;BME280;40838;50.676;7.838;2023-02-01T05:51:36;98565.31;;;1.67;100.00
54936;BME280;40838;50.676;7.838;2023-02-01T05:54:26;98578.94;;;1.82;100.00
54936;BME280;40838;50.676;7.838;2023-02-01T05:57:15;98561.53;;;1.88;100.00
54936;BME280;40838;50.676;7.838;2023-02-01T06:00:13;98559.72;;;1.57;100.00
54936;BME280;40838;50.676;7.838;2023-02-01T06:09:06;98565.63;;;1.77;100.00
54936;BME280;40838;50.676;7.838;2023-02-01T06:11:52;98567.94;;;1.35;100.00
54936;BME280;40838;50.676;7.838;2023-02-01T06:14:29;98548.84;;;2.03;100.00
54936;BME280;40838;50.676;7.838;2023-02-01T06:23:42;98557.31;;;1.80;100.00
54936;BME280;40838;50.676;7.838;2023-02-01T06:26:19;98566.19;;;2.11;100.00
54936;BME280;40838;50.676;7.838;2023-02-01T06:32:13;98557.81;;;1.95;100.00
54936;BME280;40838;50.676;7.838;2023-02-01T06:37:32;98534.56;;;1.99;100.00
54936;BME280;40838;50.676;7.838;2023-02-01T06:40:10;98540.13;;;1.84;100.00
54936;BME280;40838;50.676;7.838;2023-02-01T06:42:39;98547.63;;;1.81;100.00
54936;BME280;40838;50.676;7.838;2023-02-01T06:45:23;98544.25;;;1.73;100.00
54936;BME280;40838;50.676;7.838;2023-02-01T06:47:53;98533.34;;;1.95;100.00
54936;BME280;40838;50.676;7.838;2023-02-01T06:53:30;98551.44;;;1.85;100.00
54936;BME280;40838;50.676;7.838;2023-02-01T06:56:42;98537.22;;;1.92;100.00
54936;BME280;40838;50.676;7.838;2023-02-01T06:59:48;98550.41;;;1.61;100.00
54936;BME280;40838;50.676;7.838;2023-02-01T07:02:12;98566.44;;;1.78;100.00
54936;BME280;40838;50.676;7.838;2023-02-01T07:04:41;98566.41;;;1.84;100.00
54936;BME280;40838;50.676;7.838;2023-02-01T07:07:10;98571.00;;;1.89;100.00
54936;BME280;40838;50.676;7.838;2023-02-01T07:09:51;98577.78;;;1.78;100.00
54936;BME280;40838;50.676;7.838;2023-02-01T07:15:10;98587.38;;;1.91;100.00
54936;BME280;40838;50.676;7.838;2023-02-01T07:17:55;98593.31;;;1.80;100.00
54936;BME280;40838;50.676;7.838;2023-02-01T07:20:28;98595.63;;;2.20;100.00
54936;BME280;40838;50.676;7.838;2023-02-01T07:23:35;98590.31;;;1.76;100.00
54936;BME280;40838;50.676;7.838;2023-02-01T07:26:19;98598.25;;;1.63;100.00
54936;BME280;40838;50.676;7.838;2023-02-01T07:28:46;98590.72;;;1.73;100.00
54936;BME280;40838;50.676;7.838;2023-02-01T07:31:51;98601.25;;;1.73;100.00
54936;BME280;40838;50.676;7.838;2023-02-01T07:34:35;98601.97;;;1.55;100.00
54936;BME280;40838;50.676;7.838;2023-02-01T07:37:12;98602.34;;;1.84;100.00
54936;BME280;40838;50.676;7.838;2023-02-01T07:39:40;98609.03;;;1.55;100.00
54936;BME280;40838;50.676;7.838;2023-02-01T07:42:12;98595.75;;;1.43;100.00
54936;BME280;40838;50.676;7.838;2023-02-01T07:44:55;98609.94;;;1.99;100.00
54936;BME280;40838;50.676;7.838;2023-02-01T07:48:54;98610.16;;;1.65;100.00
54936;BME280;40838;50.676;7.838;2023-02-01T07:53:26;98612.84;;;1.59;100.00
54936;BME280;40838;50.676;7.838;2023-02-01T07:59:01;98626.53;;;1.92;100.00
54936;BME280;40838;50.676;7.838;2023-02-01T08:01:46;98629.91;;;1.36;100.00
54936;BME280;40838;50.676;7.838;2023-02-01T08:04:13;98629.84;;;1.11;100.00
54936;BME280;40838;50.676;7.838;2023-02-01T08:06:52;98632.13;;;1.39;100.00
54936;BME280;40838;50.676;7.838;2023-02-01T08:09:31;98621.22;;;1.74;100.00
54936;BME280;40838;50.676;7.838;2023-02-01T08:12:08;98628.94;;;1.31;100.00
54936;BME280;40838;50.676;7.838;2023-02-01T08:18:49;98634.19;;;1.69;100.00
54936;BME280;40838;50.676;7.838;2023-02-01T08:20:41;98642.19;;;1.42;100.00
54936;BME280;40838;50.676;7.838;2023-02-01T08:29:13;98647.84;;;1.84;100.00
54936;BME280;40838;50.676;7.838;2023-02-01T08:32:01;98655.59;;;1.72;100.00
54936;BME280;40838;50.676;7.838;2023-02-01T08:34:32;98648.09;;;1.76;100.00
54936;BME280;40838;50.676;7.838;2023-02-01T08:37:17;98652.19;;;1.65;100.00
54936;BME280;40838;50.676;7.838;2023-02-01T08:40:20;98654.16;;;1.38;100.00
54936;BME280;40838;50.676;7.838;2023-02-01T08:42:50;98655.88;;;1.58;100.00
54936;BME280;40838;50.676;7.838;2023-02-01T08:45:24;98657.25;;;1.60;100.00
54936;BME280;40838;50.676;7.838;2023-02-01T08:48:06;98652.53;;;1.76;100.00
54936;BME280;40838;50.676;7.838;2023-02-01T08:53:38;98650.84;;;1.88;100.00
54936;BME280;40838;50.676;7.838;2023-02-01T08:56:20;98663.59;;;1.84;100.00
54936;BME280;40838;50.676;7.838;2023-02-01T09:05:23;98667.22;;;1.45;100.00
54936;BME280;40838;50.676;7.838;2023-02-01T09:08:04;98677.19;;;1.75;100.00
54936;BME280;40838;50.676;7.838;2023-02-01T09:10:47;98681.13;;;1.59;100.00
54936;BME280;40838;50.676;7.838;2023-02-01T09:15:59;98684.81;;;1.83;100.00
54936;BME280;40838;50.676;7.838;2023-02-01T09:18:50;98689.38;;;1.62;100.00
54936;BME280;40838;50.676;7.838;2023-02-01T09:31:22;98686.41;;;1.90;100.00
54936;BME280;40838;50.676;7.838;2023-02-01T09:33:54;98690.63;;;1.91;100.00
54936;BME280;40838;50.676;7.838;2023-02-01T09:36:33;98681.16;;;1.84;100.00
54936;BME280;40838;50.676;7.838;2023-02-01T09:42:21;98683.53;;;1.99;100.00
54936;BME280;40838;50.676;7.838;2023-02-01T09:45:59;98674.97;;;1.78;100.00
54936;BME280;40838;50.676;7.838;2023-02-01T09:48:36;98679.38;;;1.39;100.00
54936;BME280;40838;50.676;7.838;2023-02-01T09:57:16;98666.50;;;2.01;100.00
54936;BME280;40838;50.676;7.838;2023-02-01T10:01:39;98662.44;;;2.05;100.00
54936;BME280;40838;50.676;7.838;2023-02-01T10:03:03;98670.78;;;1.95;100.00
54936;BME280;40838;50.676;7.838;2023-02-01T10:09:28;98667.56;;;2.25;100.00
54936;BME280;40838;50.676;7.838;2023-02-01T10:15:40;98650.13;;;2.06;100.00
54936;BME280;40838;50.676;7.838;2023-02-01T10:18:48;98651.53;;;2.58;100.00
54936;BME280;40838;50.676;7.838;2023-02-01T10:22:39;98652.81;;;1.92;100.00
54936;BME280;40838;50.676;7.838;2023-02-01T10:25:07;98657.13;;;2.12;100.00
54936;BME280;40838;50.676;7.838;2023-02-01T10:28:26;98653.34;;;2.58;100.00
54936;BME280;40838;50.676;7.838;2023-02-01T10:31:17;98651.03;;;2.18;100.00
54936;BME280;40838;50.676;7.838;2023-02-01T10:34:10;98653.47;;;2.45;100.00
54936;BME280;40838;50.676;7.838;2023-02-01T10:37:04;98648.63;;;2.16;100.00
54936;BME280;40838;50.676;7.838;2023-02-01T10:39:56;98649.63;;;1.90;100.00
54936;BME280;40838;50.676;7.838;2023-02-01T10:42:26;98647.72;;;2.29;100.00
54936;BME280;40838;50.676;7.838;2023-02-01T10:48:13;98645.28;;;2.03;100.00
54936;BME280;40838;50.676;7.838;2023-02-01T10:51:28;98638.09;;;1.91;100.00
54936;BME280;40838;50.676;7.838;2023-02-01T10:56:58;98637.16;;;2.04;100.00
54936;BME280;40838;50.676;7.838;2023-02-01T10:59:28;98635.00;;;2.26;100.00
54936;BME280;40838;50.676;7.838;2023-02-01T11:02:39;98643.19;;;2.36;100.00
54936;BME280;40838;50.676;7.838;2023-02-01T11:05:17;98639.22;;;2.27;100.00
54936;BME280;40838;50.676;7.838;2023-02-01T11:10:57;98627.84;;;2.08;100.00
54936;BME280;40838;50.676;7.838;2023-02-01T11:19:56;98612.44;;;2.44;100.00
54936;BME280;40838;50.676;7.838;2023-02-01T11:47:40;98585.69;;;2.65;100.00
54936;BME280;40838;50.676;7.838;2023-02-01T11:50:44;98578.25;;;2.62;100.00
54936;BME280;40838;50.676;7.838;2023-02-01T11:53:28;98576.56;;;2.68;100.00
54936;BME280;40838;50.676;7.838;2023-02-01T11:56:11;98575.47;;;2.75;100.00
54936;BME280;40838;50.676;7.838;2023-02-01T11:58:56;98569.75;;;2.42;100.00
54936;BME280;40838;50.676;7.838;2023-02-01T12:17:16;98552.88;;;3.35;100.00
54936;BME280;40838;50.676;7.838;2023-02-01T12:20:10;98554.69;;;3.04;100.00
54936;BME280;40838;50.676;7.838;2023-02-01T12:25:58;98549.44;;;3.04;100.00
54936;BME280;40838;50.676;7.838;2023-02-01T12:28:39;98555.41;;;3.11;100.00
54936;BME280;40838;50.676;7.838;2023-02-01T12:34:36;98554.59;;;2.80;100.00
54936;BME280;40838;50.676;7.838;2023-02-01T12:37:32;98541.41;;;3.29;100.00
54936;BME280;40838;50.676;7.838;2023-02-01T12:43:33;98549.25;;;2.87;100.00
54936;BME280;40838;50.676;7.838;2023-02-01T12:46:23;98539.31;;;2.71;100.00
54936;BME280;40838;50.676;7.838;2023-02-01T12:49:30;98527.56;;;3.03;100.00
54936;BME280;40838;50.676;7.838;2023-02-01T12:52:18;98539.06;;;2.91;100.00
54936;BME280;40838;50.676;7.838;2023-02-01T12:54:55;98532.13;;;2.96;100.00
54936;BME280;40838;50.676;7.838;2023-02-01T12:57:49;98539.50;;;2.88;100.00
54936;BME280;40838;50.676;7.838;2023-02-01T13:00:39;98535.84;;;2.89;100.00
54936;BME280;40838;50.676;7.838;2023-02-01T13:03:31;98537.78;;;2.63;100.00
54936;BME280;40838;50.676;7.838;2023-02-01T13:09:22;98526.69;;;3.21;100.00
54936;BME280;40838;50.676;7.838;2023-02-01T13:12:12;98534.34;;;3.11;100.00
54936;BME280;40838;50.676;7.838;2023-02-01T13:14:52;98537.22;;;3.21;100.00
54936;BME280;40838;50.676;7.838;2023-02-01T13:17:33;98544.72;;;3.24;100.00
54936;BME280;40838;50.676;7.838;2023-02-01T13:23:39;98530.50;;;3.79;100.00
54936;BME280;40838;50.676;7.838;2023-02-01T13:26:10;98537.56;;;3.55;100.00
54936;BME280;40838;50.676;7.838;2023-02-01T13:29:02;98519.97;;;3.67;100.00
54936;BME280;40838;50.676;7.838;2023-02-01T13:31:59;98535.34;;;2.80;100.00
54936;BME280;40838;50.676;7.838;2023-02-01T13:35:15;98527.75;;;3.20;100.00
54936;BME280;40838;50.676;7.838;2023-02-01T13:38:22;98520.50;;;3.46;100.00
54936;BME280;40838;50.676;7.838;2023-02-01T13:44:38;98492.69;;;3.73;100.00
54936;BME280;40838;50.676;7.838;2023-02-01T13:47:20;98489.69;;;3.46;100.00
54936;BME280;40838;50.676;7.838;2023-02-01T13:50:21;98490.31;;;3.30;100.00
54936;BME280;40838;50.676;7.838;2023-02-01T13:53:13;98506.47;;;3.22;100.00
54936;BME280;40838;50.676;7.838;2023-02-01T13:56:17;98492.94;;;2.88;100.00
54936;BME280;40838;50.676;7.838;2023-02-01T14:09:14;98494.31;;;2.60;100.00
54936;BME280;40838;50.676;7.838;2023-02-01T19:15:22;98580.97;;;2.05;100.00
54936;BME280;40838;50.676;7.838;2023-02-01T19:17:51;98580.53;;;1.83;100.00
54936;BME280;40838;50.676;7.838;2023-02-01T19:20:21;98591.09;;;1.77;100.00
54936;BME280;40838;50.676;7.838;2023-02-01T19:22:48;98584.59;;;2.11;100.00
54936;BME280;40838;50.676;7.838;2023-02-01T19:25:18;98595.00;;;1.92;100.00
54936;BME280;40838;50.676;7.838;2023-02-01T19:27:47;98585.25;;;1.75;100.00
54936;BME280;40838;50.676;7.838;2023-02-01T19:30:15;98588.28;;;1.78;100.00
54936;BME280;40838;50.676;7.838;2023-02-01T19:32:44;98590.84;;;2.10;100.00
54936;BME280;40838;50.676;7.838;2023-02-01T19:35:13;98595.44;;;1.89;100.00
54936;BME280;40838;50.676;7.838;2023-02-01T19:37:44;98579.78;;;1.76;100.00
54936;BME280;40838;50.676;7.838;2023-02-01T19:40:14;98583.03;;;1.71;100.00
54936;BME280;40838;50.676;7.838;2023-02-01T19:42:51;98581.19;;;1.79;100.00
54936;BME280;40838;50.676;7.838;2023-02-01T19:45:20;98565.75;;;1.64;100.00
54936;BME280;40838;50.676;7.838;2023-02-01T19:47:57;98568.09;;;1.97;100.00
54936;BME280;40838;50.676;7.838;2023-02-01T19:50:37;98567.88;;;1.73;100.00
54936;BME280;40838;50.676;7.838;2023-02-01T19:53:10;98576.16;;;2.02;100.00
54936;BME280;40838;50.676;7.838;2023-02-01T19:55:37;98569.06;;;2.03;100.00
54936;BME280;40838;50.676;7.838;2023-02-01T19:58:04;98575.13;;;2.03;100.00
54936;BME280;40838;50.676;7.838;2023-02-01T20:00:32;98580.88;;;2.44;100.00
54936;BME280;40838;50.676;7.838;2023-02-01T20:03:01;98576.13;;;2.27;100.00
54936;BME280;40838;50.676;7.838;2023-02-01T20:05:30;98584.66;;;2.48;100.00
54936;BME280;40838;50.676;7.838;2023-02-01T20:07:59;98565.56;;;2.34;100.00
54936;BME280;40838;50.676;7.838;2023-02-01T20:10:32;98579.47;;;2.16;100.00
54936;BME280;40838;50.676;7.838;2023-02-01T20:13:01;98584.00;;;2.27;100.00
54936;BME280;40838;50.676;7.838;2023-02-01T20:15:30;98588.69;;;2.50;100.00
54936;BME280;40838;50.676;7.838;2023-02-01T20:17:58;98578.44;;;2.42;100.00
54936;BME280;40838;50.676;7.838;2023-02-01T20:20:29;98590.34;;;2.45;100.00
54936;BME280;40838;50.676;7.838;2023-02-01T20:22:56;98593.25;;;2.11;100.00
54936;BME280;40838;50.676;7.838;2023-02-01T20:25:45;98585.34;;;2.36;100.00
54936;BME280;40838;50.676;7.838;2023-02-01T20:28:12;98577.09;;;2.33;100.00
54936;BME280;40838;50.676;7.838;2023-02-01T20:30:53;98576.53;;;2.31;100.00
54936;BME280;40838;50.676;7.838;2023-02-01T20:33:21;98577.09;;;2.58;100.00
54936;BME280;40838;50.676;7.838;2023-02-01T20:35:51;98594.00;;;2.18;100.00
54936;BME280;40838;50.676;7.838;2023-02-01T20:38:23;98578.41;;;2.67;100.00
54936;BME280;40838;50.676;7.838;2023-02-01T20:40:50;98580.34;;;2.53;100.00
54936;BME280;40838;50.676;7.838;2023-02-01T20:43:46;98587.16;;;2.43;100.00
54936;BME280;40838;50.676;7.838;2023-02-01T20:46:13;98570.88;;;2.52;100.00
54936;BME280;40838;50.676;7.838;2023-02-01T20:48:59;98579.03;;;2.99;100.00
54936;BME280;40838;50.676;7.838;2023-02-01T20:51:28;98569.44;;;2.31;100.00
54936;BME280;40838;50.676;7.838;2023-02-01T20:53:54;98582.72;;;2.61;100.00
54936;BME280;40838;50.676;7.838;2023-02-01T20:56:21;98584.81;;;2.53;100.00
54936;BME280;40838;50.676;7.838;2023-02-01T20:58:58;98584.81;;;2.71;100.00
54936;BME280;40838;50.676;7.838;2023-02-01T21:01:36;98594.69;;;2.57;100.00
54936;BME280;40838;50.676;7.838;2023-02-01T21:04:30;98586.06;;;2.50;100.00
54936;BME280;40838;50.676;7.838;2023-02-01T21:06:59;98581.09;;;2.97;100.00
54936;BME280;40838;50.676;7.838;2023-02-01T21:09:44;98588.91;;;2.49;100.00
54936;BME280;40838;50.676;7.838;2023-02-01T21:12:17;98582.50;;;2.63;100.00
54936;BME280;40838;50.676;7.838;2023-02-01T21:14:48;98582.94;;;2.60;100.00
54936;BME280;40838;50.676;7.838;2023-02-01T21:17:15;98569.69;;;2.85;100.00
54936;BME280;40838;50.676;7.838;2023-02-01T21:19:42;98583.81;;;2.91;100.00
54936;BME280;40838;50.676;7.838;2023-02-01T21:22:12;98575.97;;;3.02;100.00
54936;BME280;40838;50.676;7.838;2023-02-01T21:27:22;98575.56;;;2.87;100.00
54936;BME280;40838;50.676;7.838;2023-02-01T21:29:49;98574.16;;;2.66;100.00
54936;BME280;40838;50.676;7.838;2023-02-01T21:32:16;98581.16;;;2.91;100.00
54936;BME280;40838;50.676;7.838;2023-02-01T21:34:47;98585.47;;;3.03;100.00
54936;BME280;40838;50.676;7.838;2023-02-01T21:37:15;98582.25;;;2.83;100.00
54936;BME280;40838;50.676;7.838;2023-02-01T21:39:54;98579.31;;;3.09;100.00
54936;BME280;40838;50.676;7.838;2023-02-01T21:42:39;98590.38;;;3.00;100.00
54936;BME280;40838;50.676;7.838;2023-02-01T21:45:08;98591.41;;;2.80;100.00
54936;BME280;40838;50.676;7.838;2023-02-01T21:47:35;98587.25;;;3.21;100.00
54936;BME280;40838;50.676;7.838;2023-02-01T21:50:05;98589.94;;;3.03;100.00
54936;BME280;40838;50.676;7.838;2023-02-01T21:52:35;98604.78;;;2.97;100.00
54936;BME280;40838;50.676;7.838;2023-02-01T21:55:04;98614.59;;;2.90;100.00
54936;BME280;40838;50.676;7.838;2023-02-01T21:57:33;98609.09;;;2.92;100.00
54936;BME280;40838;50.676;7.838;2023-02-01T22:00:07;98605.81;;;2.78;100.00
54936;BME280;40838;50.676;7.838;2023-02-01T22:02:38;98603.63;;;2.75;100.00
54936;BME280;40838;50.676;7.838;2023-02-01T22:05:06;98617.28;;;2.83;100.00
54936;BME280;40838;50.676;7.838;2023-02-01T22:07:38;98613.19;;;2.69;100.00
54936;BME280;40838;50.676;7.838;2023-02-01T22:10:11;98624.78;;;2.80;100.00
54936;BME280;40838;50.676;7.838;2023-02-01T22:12:46;98617.84;;;2.85;100.00
54936;BME280;40838;50.676;7.838;2023-02-01T22:15:16;98616.53;;;2.95;100.00
54936;BME280;40838;50.676;7.838;2023-02-01T22:18:22;98621.97;;;2.63;100.00
54936;BME280;40838;50.676;7.838;2023-02-01T22:20:34;98617.44;;;3.07;100.00
54936;BME280;40838;50.676;7.838;2023-02-01T22:23:05;98621.66;;;2.71;100.00
54936;BME280;40838;50.676;7.838;2023-02-01T22:25:32;98634.66;;;3.03;100.00
54936;BME280;40838;50.676;7.838;2023-02-01T22:28:05;98636.34;;;2.97;100.00
54936;BME280;40838;50.676;7.838;2023-02-01T22:30:35;98634.16;;;2.94;100.00
54936;BME280;40838;50.676;7.838;2023-02-01T22:33:08;98643.59;;;2.83;100.00
54936;BME280;40838;50.676;7.838;2023-02-01T22:35:37;98634.31;;;2.99;100.00
54936;BME280;40838;50.676;7.838;2023-02-01T22:40:57;98645.56;;;2.88;100.00
54936;BME280;40838;50.676;7.838;2023-02-01T22:43:26;98645.72;;;2.93;100.00
54936;BME280;40838;50.676;7.838;2023-02-01T22:46:12;98644.44;;;2.77;100.00
54936;BME280;40838;50.676;7.838;2023-02-01T22:48:50;98637.00;;;2.74;100.00
54936;BME280;40838;50.676;7.838;2023-02-01T22:51:23;98631.53;;;2.76;100.00
54936;BME280;40838;50.676;7.838;2023-02-01T22:54:09;98630.66;;;2.82;100.00
54936;BME280;40838;50.676;7.838;2023-02-01T22:56:42;98628.44;;;2.97;100.00
54936;BME280;40838;50.676;7.838;2023-02-01T22:59:11;98638.78;;;2.99;100.00
54936;BME280;40838;50.676;7.838;2023-02-01T23:01:39;98629.41;;;3.03;100.00
54936;BME280;40838;50.676;7.838;2023-02-01T23:04:11;98646.38;;;3.07;100.00
54936;BME280;40838;50.676;7.838;2023-02-01T23:06:48;98637.50;;;2.83;100.00
54936;BME280;40838;50.676;7.838;2023-02-01T23:09:18;98644.84;;;2.99;100.00
54936;BME280;40838;50.676;7.838;2023-02-01T23:11:46;98650.03;;;2.88;100.00
54936;BME280;40838;50.676;7.838;2023-02-01T23:14:34;98652.66;;;2.88;100.00
54936;BME280;40838;50.676;7.838;2023-02-01T23:17:23;98645.72;;;2.75;100.00
54936;BME280;40838;50.676;7.838;2023-02-01T23:19:52;98649.94;;;2.94;100.00
54936;BME280;40838;50.676;7.838;2023-02-01T23:22:21;98637.16;;;2.79;100.00
54936;BME280;40838;50.676;7.838;2023-02-01T23:24:51;98649.00;;;3.25;100.00
54936;BME280;40838;50.676;7.838;2023-02-01T23:27:18;98640.81;;;2.78;100.00
54936;BME280;40838;50.676;7.838;2023-02-01T23:29:51;98652.59;;;2.94;100.00
54936;BME280;40838;50.676;7.838;2023-02-01T23:32:18;98645.41;;;2.65;100.00
54936;BME280;40838;50.676;7.838;2023-02-01T23:34:57;98654.34;;;2.82;100.00
54936;BME280;40838;50.676;7.838;2023-02-01T23:37:28;98663.78;;;3.08;100.00
54936;BME280;40838;50.676;7.838;2023-02-01T23:39:58;98660.56;;;3.06;100.00
54936;BME280;40838;50.676;7.838;2023-02-01T23:42:38;98664.06;;;3.00;100.00
54936;BME280;40838;50.676;7.838;2023-02-01T23:45:06;98665.44;;;3.21;100.00
54936;BME280;40838;50.676;7.838;2023-02-01T23:47:35;98659.75;;;3.42;100.00
54936;BME280;40838;50.676;7.838;2023-02-01T23:52:55;98670.31;;;3.36;100.00
54936;BME280;40838;50.676;7.838;2023-02-01T23:55:50;98665.09;;;2.99;100.00
54936;BME280;40838;50.676;7.838;2023-02-01T23:58:19;98678.47;;;3.16;100.00
